Time;durP1;ratioP1;P1;durP2;ratioP2;P2;SDS_P1;SDS_P2;PMS_P1;PMS_P2;Temp;Humidity;BMP_temperature;BMP_pressure;BME280_temperature;BME280_humidity;BME280_pressure;Samples;Min_cycle;Max_cycle;Signal;HPM_P1;HPM_P2
2023/12/07 00:00:40;;;;;;;48.07;28.40;;;3.10;99.90;;;;;;4953994;29;20687;-80
2023/12/07 00:03:09;;;;;;;63.67;30.00;;;3.00;99.90;;;;;;4956356;28;20233;-80
2023/12/07 00:05:36;;;;;;;68.80;27.27;;;3.00;99.90;;;;;;4955680;29;20199;-80
2023/12/07 00:08:04;;;;;;;60.50;29.33;;;2.90;99.90;;;;;;4950605;29;20190;-80
2023/12/07 00:10:32;;;;;;;62.27;31.03;;;2.90;99.90;;;;;;4953699;29;20193;-80
2023/12/07 00:12:59;;;;;;;57.60;30.53;;;3.00;99.90;;;;;;4951173;29;20235;-80
2023/12/07 00:15:27;;;;;;;56.10;30.40;;;3.10;99.90;;;;;;4957125;29;20219;-80
2023/12/07 00:17:54;;;;;;;55.97;30.10;;;3.30;99.90;;;;;;4955894;29;20267;-80
2023/12/07 00:20:23;;;;;;;62.37;32.60;;;3.30;99.90;;;;;;4955447;29;20194;-80
2023/12/07 00:22:50;;;;;;;65.50;31.37;;;3.10;99.90;;;;;;4955518;29;20214;-80
2023/12/07 00:25:18;;;;;;;57.90;31.27;;;3.10;99.90;;;;;;4953604;29;20203;-80
2023/12/07 00:27:46;;;;;;;57.03;31.23;;;3.20;99.90;;;;;;4946306;29;20208;-80
2023/12/07 00:30:14;;;;;;;58.03;34.03;;;3.20;99.90;;;;;;4952837;29;20201;-80
2023/12/07 00:32:43;;;;;;;65.20;32.97;;;3.00;99.90;;;;;;4953165;28;20221;-80
2023/12/07 00:35:11;;;;;;;61.13;29.60;;;3.10;99.90;;;;;;4957165;29;20196;-80
2023/12/07 00:37:40;;;;;;;59.03;31.00;;;2.90;99.90;;;;;;4955510;29;20568;-80
2023/12/07 00:40:08;;;;;;;60.33;32.40;;;2.90;99.90;;;;;;4954446;29;20224;-82
2023/12/07 00:42:35;;;;;;;66.67;35.07;;;2.80;99.90;;;;;;4956033;28;20211;-82
2023/12/07 00:45:03;;;;;;;82.97;34.80;;;2.90;99.90;;;;;;4949642;29;20216;-83
2023/12/07 00:47:31;;;;;;;60.37;33.03;;;3.00;99.90;;;;;;4963088;28;20672;-83
2023/12/07 00:49:58;;;;;;;91.13;35.17;;;2.90;99.90;;;;;;4948029;29;20195;-82
2023/12/07 00:52:26;;;;;;;85.97;36.17;;;2.90;99.90;;;;;;4939405;29;20206;-82
2023/12/07 00:54:55;;;;;;;74.20;35.30;;;2.90;99.90;;;;;;4941716;29;20205;-80
2023/12/07 00:57:22;;;;;;;65.93;34.13;;;2.90;99.90;;;;;;4946024;29;20210;-80
2023/12/07 00:59:50;;;;;;;62.83;34.90;;;3.00;99.90;;;;;;4954099;29;20221;-80
2023/12/07 01:02:17;;;;;;;79.00;36.00;;;3.10;99.90;;;;;;4952558;29;20207;-81
2023/12/07 01:04:45;;;;;;;59.80;34.17;;;3.10;99.90;;;;;;4956869;29;20221;-80
2023/12/07 01:07:13;;;;;;;85.23;35.60;;;3.10;99.90;;;;;;4958259;29;20204;-80
2023/12/07 01:09:41;;;;;;;82.00;36.57;;;3.00;99.90;;;;;;4954010;29;20205;-80
2023/12/07 01:12:09;;;;;;;66.77;35.23;;;3.00;99.90;;;;;;4953227;29;20204;-80
2023/12/07 01:14:37;;;;;;;63.37;35.80;;;3.10;99.90;;;;;;4956621;29;20246;-80
2023/12/07 01:17:05;;;;;;;63.23;35.17;;;3.10;99.90;;;;;;4955326;28;20201;-80
2023/12/07 01:19:34;;;;;;;66.17;34.57;;;3.20;99.90;;;;;;4952930;29;20217;-80
2023/12/07 01:22:01;;;;;;;60.50;34.80;;;3.10;99.90;;;;;;4955929;29;20600;-80
2023/12/07 01:24:29;;;;;;;59.03;32.90;;;3.10;99.90;;;;;;4958254;28;20222;-81
2023/12/07 01:26:56;;;;;;;65.97;35.40;;;3.10;99.90;;;;;;4957912;29;20193;-80
2023/12/07 01:29:26;;;;;;;64.93;34.50;;;3.10;99.90;;;;;;4956528;29;20193;-80
2023/12/07 01:31:53;;;;;;;64.93;35.97;;;3.20;99.90;;;;;;4954716;29;20681;-80
2023/12/07 01:34:20;;;;;;;67.77;35.63;;;3.20;99.90;;;;;;4952367;28;20684;-80
2023/12/07 01:36:48;;;;;;;65.50;34.63;;;3.20;99.90;;;;;;4967973;28;20198;-81
2023/12/07 01:39:15;;;;;;;53.57;31.93;;;3.10;99.90;;;;;;4957185;29;20225;-81
2023/12/07 01:41:43;;;;;;;58.83;32.80;;;3.30;99.90;;;;;;4958360;29;20194;-80
2023/12/07 01:44:10;;;;;;;55.93;31.63;;;3.50;99.90;;;;;;4958284;28;20225;-80
2023/12/07 01:46:39;;;;;;;60.73;34.83;;;3.50;99.90;;;;;;4956759;29;20197;-80
2023/12/07 01:49:06;;;;;;;60.03;34.80;;;3.40;99.90;;;;;;4957653;29;20198;-80
2023/12/07 01:51:35;;;;;;;57.47;31.27;;;3.40;99.90;;;;;;4956973;29;20201;-80
2023/12/07 01:54:23;;;;;;;49.87;31.97;;;3.50;99.90;;;;;;4960348;28;20561;-82
2023/12/07 01:56:52;;;;;;;56.20;31.60;;;3.40;99.90;;;;;;4963348;29;20673;-82
2023/12/07 01:59:19;;;;;;;52.83;31.23;;;3.50;99.90;;;;;;4963541;29;20224;-83
2023/12/07 02:01:48;;;;;;;55.30;30.97;;;3.50;99.90;;;;;;4961943;29;20198;-82
2023/12/07 02:04:16;;;;;;;47.13;29.50;;;3.40;99.90;;;;;;4956699;29;20234;-82
2023/12/07 02:06:43;;;;;;;51.17;30.27;;;3.40;99.90;;;;;;4950721;29;20214;-82
2023/12/07 02:09:11;;;;;;;55.00;31.63;;;3.40;99.90;;;;;;4960933;29;20221;-82
2023/12/07 02:11:38;;;;;;;56.67;32.57;;;3.50;99.90;;;;;;4960803;29;20202;-82
2023/12/07 02:14:06;;;;;;;64.10;32.73;;;3.40;99.90;;;;;;4960864;29;20252;-82
2023/12/07 02:16:40;;;;;;;54.87;31.27;;;3.40;99.90;;;;;;4957868;29;20202;-82
2023/12/07 02:19:25;;;;;;;61.90;32.67;;;3.40;99.90;;;;;;4960047;29;20219;-82
2023/12/07 02:21:59;;;;;;;58.90;33.03;;;3.40;99.90;;;;;;4958415;29;20208;-82
2023/12/07 02:24:29;;;;;;;53.13;30.40;;;3.50;99.90;;;;;;4960473;29;20217;-82
2023/12/07 02:26:57;;;;;;;57.83;31.83;;;3.30;99.90;;;;;;4941739;29;20665;-82
2023/12/07 02:29:25;;;;;;;55.57;30.97;;;3.30;99.90;;;;;;4944785;29;20211;-82
2023/12/07 02:31:52;;;;;;;51.07;30.17;;;3.20;99.90;;;;;;4958464;29;20227;-82
2023/12/07 02:34:21;;;;;;;53.83;30.67;;;3.30;99.90;;;;;;4958151;28;20272;-82
2023/12/07 02:36:51;;;;;;;55.17;29.87;;;3.40;99.90;;;;;;4961101;29;20231;-82
2023/12/07 02:39:19;;;;;;;55.07;31.23;;;3.30;99.90;;;;;;4957801;29;20231;-82
2023/12/07 02:41:48;;;;;;;56.23;30.17;;;3.50;99.90;;;;;;4969286;28;20204;-82
2023/12/07 02:44:17;;;;;;;58.63;29.80;;;3.50;99.90;;;;;;4956499;29;20277;-82
2023/12/07 02:46:46;;;;;;;54.10;30.13;;;3.30;99.90;;;;;;4960343;28;20197;-82
2023/12/07 02:49:19;;;;;;;50.13;28.07;;;3.20;99.90;;;;;;4957551;29;20210;-82
2023/12/07 02:51:47;;;;;;;54.57;29.30;;;3.20;99.90;;;;;;4955595;29;20207;-82
2023/12/07 02:54:14;;;;;;;52.53;28.27;;;3.00;99.90;;;;;;4959769;28;20232;-82
2023/12/07 02:56:42;;;;;;;54.87;29.47;;;3.00;99.90;;;;;;4960498;29;20568;-82
2023/12/07 02:59:09;;;;;;;56.93;30.53;;;3.10;99.90;;;;;;4958238;29;20209;-82
2023/12/07 03:01:38;;;;;;;60.83;31.40;;;3.10;99.90;;;;;;4953162;29;20202;-82
2023/12/07 03:04:05;;;;;;;53.43;28.87;;;3.00;99.90;;;;;;4958898;28;20221;-82
2023/12/07 03:06:33;;;;;;;56.67;29.83;;;3.10;99.90;;;;;;4954926;29;20202;-82
2023/12/07 03:09:00;;;;;;;54.90;28.23;;;3.10;99.90;;;;;;4958954;28;20670;-81
2023/12/07 03:11:27;;;;;;;56.93;28.97;;;3.10;99.90;;;;;;4958400;28;20206;-82
2023/12/07 03:13:55;;;;;;;52.17;27.50;;;3.00;99.90;;;;;;4956503;29;20229;-82
2023/12/07 03:16:22;;;;;;;62.70;28.40;;;2.90;99.90;;;;;;4949786;29;20209;-82
2023/12/07 03:18:51;;;;;;;48.50;26.47;;;2.80;99.90;;;;;;4953986;29;20692;-82
2023/12/07 03:21:18;;;;;;;51.93;26.60;;;2.90;99.90;;;;;;4952584;29;20230;-82
2023/12/07 03:23:46;;;;;;;52.67;27.97;;;2.90;99.90;;;;;;4942792;29;20689;-82
2023/12/07 03:26:13;;;;;;;53.17;26.57;;;2.80;99.90;;;;;;4954674;29;20235;-82
2023/12/07 03:28:41;;;;;;;48.60;27.40;;;2.90;99.90;;;;;;4951476;29;20570;-82
2023/12/07 03:31:08;;;;;;;48.73;26.30;;;2.90;99.90;;;;;;4956552;29;20207;-82
2023/12/07 03:33:36;;;;;;;51.43;27.23;;;2.90;99.90;;;;;;4951054;28;20225;-82
2023/12/07 03:36:05;;;;;;;50.23;24.20;;;2.90;99.90;;;;;;4957612;29;20212;-82
2023/12/07 03:38:32;;;;;;;48.97;25.67;;;2.80;99.90;;;;;;4957931;29;20635;-82
2023/12/07 03:41:00;;;;;;;46.87;26.50;;;2.80;99.90;;;;;;4956043;29;20241;-82
2023/12/07 03:43:26;;;;;;;51.73;26.73;;;2.80;99.90;;;;;;4955639;29;20224;-82
2023/12/07 03:45:54;;;;;;;78.47;27.93;;;2.80;99.90;;;;;;4953367;28;20211;-82
2023/12/07 03:48:21;;;;;;;47.60;26.50;;;2.70;99.90;;;;;;4957146;29;20213;-82
2023/12/07 03:50:48;;;;;;;51.00;25.73;;;2.70;99.90;;;;;;4953411;29;20207;-82
2023/12/07 03:53:17;;;;;;;57.77;27.87;;;2.70;99.90;;;;;;4957034;28;20225;-81
2023/12/07 03:55:45;;;;;;;62.87;27.63;;;2.60;99.90;;;;;;4955182;29;20209;-81
2023/12/07 03:58:13;;;;;;;72.60;30.27;;;2.80;99.90;;;;;;4954969;29;20203;-81
2023/12/07 04:00:41;;;;;;;71.53;26.83;;;2.80;99.90;;;;;;4956180;29;20220;-82
2023/12/07 04:03:08;;;;;;;52.23;26.20;;;2.70;99.90;;;;;;4956723;28;20241;-82
2023/12/07 04:05:35;;;;;;;56.00;26.87;;;2.70;99.90;;;;;;4956888;29;20276;-81
2023/12/07 04:08:05;;;;;;;55.80;28.30;;;2.80;99.90;;;;;;4957757;29;20677;-81
2023/12/07 04:10:33;;;;;;;48.93;25.90;;;2.80;99.90;;;;;;4950388;29;20219;-81
2023/12/07 04:13:01;;;;;;;55.63;27.33;;;2.80;99.90;;;;;;4956867;29;20224;-81
2023/12/07 04:15:28;;;;;;;48.50;26.20;;;2.90;99.90;;;;;;4959353;28;20212;-82
2023/12/07 04:17:56;;;;;;;65.13;28.83;;;2.80;99.90;;;;;;4957353;29;20571;-82
2023/12/07 04:20:23;;;;;;;66.80;28.10;;;2.80;99.90;;;;;;4953005;29;20778;-81
2023/12/07 04:22:51;;;;;;;49.23;25.00;;;2.80;99.90;;;;;;4956751;29;20219;-82
2023/12/07 04:25:18;;;;;;;62.70;26.43;;;2.60;99.90;;;;;;4955198;29;20227;-81
2023/12/07 04:27:47;;;;;;;47.10;24.50;;;2.60;99.90;;;;;;4954001;29;20197;-81
2023/12/07 04:30:14;;;;;;;55.13;27.40;;;2.80;99.90;;;;;;4950404;29;20698;-82
2023/12/07 04:32:42;;;;;;;59.67;27.33;;;3.00;99.90;;;;;;4952605;28;20692;-81
2023/12/07 04:35:09;;;;;;;51.17;25.10;;;2.80;99.90;;;;;;4956386;29;20201;-81
2023/12/07 04:37:37;;;;;;;55.53;27.63;;;3.00;99.90;;;;;;4956257;29;20211;-81
2023/12/07 04:40:06;;;;;;;53.80;26.40;;;2.90;99.90;;;;;;4947492;29;20702;-81
2023/12/07 04:42:33;;;;;;;53.83;25.87;;;2.90;99.90;;;;;;4956165;28;20198;-82
2023/12/07 04:45:03;;;;;;;58.77;26.67;;;3.00;99.90;;;;;;4956219;29;20198;-82
2023/12/07 04:47:30;;;;;;;51.97;24.37;;;2.90;99.90;;;;;;4954980;29;20217;-81
2023/12/07 04:49:58;;;;;;;53.67;24.97;;;3.00;99.90;;;;;;4954898;29;20204;-81
2023/12/07 04:52:24;;;;;;;53.23;25.33;;;3.10;99.90;;;;;;4952369;29;20205;-81
2023/12/07 04:54:52;;;;;;;53.97;25.07;;;3.10;99.90;;;;;;4954125;29;20213;-82
2023/12/07 04:57:19;;;;;;;53.73;25.57;;;3.10;99.90;;;;;;4959941;28;20198;-82
2023/12/07 04:59:47;;;;;;;51.70;25.97;;;3.10;99.90;;;;;;4955867;29;20598;-81
2023/12/07 05:02:16;;;;;;;50.77;25.13;;;3.10;99.90;;;;;;4958274;28;20226;-81
2023/12/07 05:04:44;;;;;;;45.00;23.70;;;3.10;99.90;;;;;;4955911;28;20226;-81
2023/12/07 05:07:12;;;;;;;52.53;24.30;;;3.10;99.90;;;;;;4954636;29;20205;-82
2023/12/07 05:09:40;;;;;;;45.80;24.00;;;3.20;99.90;;;;;;4958368;28;20596;-82
2023/12/07 05:12:08;;;;;;;40.50;21.73;;;3.10;99.90;;;;;;4954932;29;20202;-81
2023/12/07 05:14:36;;;;;;;40.87;20.87;;;3.10;99.90;;;;;;4955193;29;20228;-82
2023/12/07 05:17:03;;;;;;;41.30;22.23;;;3.20;99.90;;;;;;4956197;29;20190;-81
2023/12/07 05:19:32;;;;;;;39.00;22.43;;;3.10;99.90;;;;;;4957119;29;20588;-82
2023/12/07 05:22:00;;;;;;;41.63;22.40;;;3.20;99.90;;;;;;4948281;29;20216;-81
2023/12/07 05:24:27;;;;;;;33.13;20.10;;;3.30;99.90;;;;;;4950072;29;20221;-81
2023/12/07 05:26:55;;;;;;;38.70;21.73;;;3.30;99.90;;;;;;4955773;29;20201;-81
2023/12/07 05:29:23;;;;;;;36.20;21.87;;;3.30;99.90;;;;;;4964444;28;20202;-81
2023/12/07 05:31:51;;;;;;;36.73;21.13;;;3.40;99.90;;;;;;4960667;29;20580;-81
2023/12/07 05:34:18;;;;;;;27.40;16.70;;;3.30;99.90;;;;;;4964073;28;20229;-81
2023/12/07 05:36:47;;;;;;;31.03;17.17;;;3.30;99.90;;;;;;4952388;29;20214;-81
2023/12/07 05:39:17;;;;;;;32.50;17.60;;;3.20;99.90;;;;;;4960801;29;20215;-81
2023/12/07 05:41:46;;;;;;;29.60;17.70;;;3.20;99.90;;;;;;4960455;29;20226;-81
2023/12/07 05:44:14;;;;;;;35.73;20.10;;;3.30;99.90;;;;;;4961147;28;20214;-82
2023/12/07 05:46:44;;;;;;;38.40;19.50;;;3.40;99.90;;;;;;4961324;29;20198;-82
2023/12/07 05:49:11;;;;;;;32.47;18.10;;;3.40;99.90;;;;;;4960136;29;20208;-81
2023/12/07 05:51:39;;;;;;;32.93;18.87;;;3.30;99.90;;;;;;4951746;29;20199;-81
2023/12/07 05:54:08;;;;;;;33.40;19.00;;;3.40;99.90;;;;;;4947264;29;20222;-81
2023/12/07 05:56:35;;;;;;;32.27;18.80;;;3.40;99.90;;;;;;4963901;29;20216;-82
2023/12/07 05:59:03;;;;;;;35.87;20.27;;;3.40;99.90;;;;;;4962150;29;20202;-82
2023/12/07 06:01:30;;;;;;;36.37;20.73;;;3.40;99.90;;;;;;4954617;29;20216;-81
2023/12/07 06:03:59;;;;;;;33.57;20.27;;;3.50;99.90;;;;;;4962463;29;20231;-81
2023/12/07 06:06:26;;;;;;;35.10;20.17;;;3.60;99.90;;;;;;4962414;29;20207;-82
2023/12/07 06:08:54;;;;;;;32.47;20.27;;;3.60;99.90;;;;;;4958878;29;20682;-82
2023/12/07 06:11:22;;;;;;;35.40;19.73;;;3.60;99.90;;;;;;4953131;29;20205;-82
2023/12/07 06:13:50;;;;;;;36.63;20.53;;;3.60;99.90;;;;;;4947126;29;20218;-82
2023/12/07 06:16:18;;;;;;;34.67;20.60;;;3.60;99.90;;;;;;4962848;29;20212;-82
2023/12/07 06:18:46;;;;;;;32.03;19.40;;;3.60;99.90;;;;;;4962677;29;20203;-82
2023/12/07 06:21:15;;;;;;;33.17;20.17;;;3.70;99.90;;;;;;4962377;29;20218;-82
2023/12/07 06:23:46;;;;;;;35.73;19.77;;;3.70;99.90;;;;;;4962453;28;20214;-82
2023/12/07 06:26:29;;;;;;;14.07;8.73;;;3.70;99.90;;;;;;4954926;28;20205;-82
2023/12/07 06:28:59;;;;;;;31.47;17.03;;;5.20;99.90;;;;;;4952441;29;20202;-82
2023/12/07 06:31:27;;;;;;;30.40;19.80;;;5.40;99.90;;;;;;4959993;29;20204;-83
2023/12/07 06:37:46;;;;;;;31.60;19.20;;;4.50;99.90;;;;;;4962639;28;20175;-83
2023/12/07 06:40:13;;;;;;;31.83;19.43;;;4.30;99.90;;;;;;4953332;28;20201;-83
2023/12/07 06:42:42;;;;;;;30.10;18.30;;;4.20;99.90;;;;;;4961436;29;20317;-81
2023/12/07 06:45:14;;;;;;;29.33;18.70;;;4.00;99.90;;;;;;4968524;28;20209;-82
2023/12/07 06:47:43;;;;;;;32.73;19.63;;;4.10;99.90;;;;;;4961443;29;20625;-82
2023/12/07 06:50:11;;;;;;;32.07;19.50;;;4.10;99.90;;;;;;4961795;29;20198;-82
2023/12/07 06:52:41;;;;;;;30.37;19.00;;;3.90;99.90;;;;;;4962388;29;20200;-82
2023/12/07 06:55:10;;;;;;;28.77;17.80;;;4.00;99.90;;;;;;4961094;29;20199;-82
2023/12/07 06:57:46;;;;;;;29.43;18.03;;;3.90;99.90;;;;;;4960042;28;20206;-82
2023/12/07 07:00:18;;;;;;;30.03;17.63;;;3.90;99.90;;;;;;4959043;29;20218;-81
2023/12/07 07:02:51;;;;;;;32.10;19.13;;;3.90;99.90;;;;;;4957537;29;20223;-81
2023/12/07 07:05:19;;;;;;;34.50;19.83;;;4.00;99.90;;;;;;4958441;29;20197;-81
2023/12/07 07:07:47;;;;;;;34.37;18.67;;;4.10;99.90;;;;;;4958733;29;20201;-82
2023/12/07 07:10:17;;;;;;;27.17;17.80;;;3.90;99.90;;;;;;4956569;29;20198;-83
2023/12/07 07:12:46;;;;;;;31.10;18.30;;;3.80;99.90;;;;;;4951309;28;20210;-81
2023/12/07 07:15:28;;;;;;;29.80;18.93;;;3.70;99.90;;;;;;4957598;29;20210;-80
2023/12/07 07:17:55;;;;;;;28.30;18.97;;;3.70;99.90;;;;;;4951410;29;20198;-80
2023/12/07 07:20:23;;;;;;;29.67;18.87;;;3.60;99.90;;;;;;4955364;29;20209;-80
2023/12/07 07:22:50;;;;;;;30.60;18.77;;;3.50;99.90;;;;;;4957656;29;20737;-79
2023/12/07 07:25:19;;;;;;;31.10;17.83;;;3.30;99.90;;;;;;4949618;29;20197;-80
2023/12/07 07:27:48;;;;;;;28.87;18.30;;;3.30;99.90;;;;;;4957107;29;20212;-79
2023/12/07 07:30:15;;;;;;;29.53;18.07;;;3.20;99.90;;;;;;4957665;29;20201;-80
2023/12/07 07:32:43;;;;;;;32.00;20.20;;;3.20;99.90;;;;;;4959015;28;20218;-80
2023/12/07 07:35:11;;;;;;;30.47;18.83;;;3.30;99.90;;;;;;4967104;28;20233;-79
2023/12/07 07:37:39;;;;;;;34.20;20.63;;;3.40;99.90;;;;;;4953181;29;20206;-80
2023/12/07 07:40:07;;;;;;;28.17;17.97;;;3.40;99.90;;;;;;4961192;29;20201;-79
2023/12/07 07:42:35;;;;;;;29.40;18.30;;;3.30;99.90;;;;;;4957039;28;20214;-80
2023/12/07 07:45:06;;;;;;;33.77;19.53;;;3.20;99.90;;;;;;4962669;29;20201;-80
2023/12/07 07:47:33;;;;;;;27.27;17.33;;;3.10;99.90;;;;;;4960443;29;20250;-82
2023/12/07 07:50:10;;;;;;;29.63;17.83;;;3.30;99.90;;;;;;4953463;29;20208;-80
2023/12/07 07:52:39;;;;;;;31.57;18.60;;;3.20;99.90;;;;;;4971291;28;20215;-79
2023/12/07 07:55:07;;;;;;;31.03;19.17;;;3.30;99.90;;;;;;4955632;28;20206;-80
2023/12/07 07:57:35;;;;;;;28.37;18.67;;;3.30;99.90;;;;;;4956266;29;20207;-80
2023/12/07 08:00:08;;;;;;;28.67;17.80;;;3.20;99.90;;;;;;4951585;28;20683;-79
2023/12/07 08:02:36;;;;;;;31.47;18.53;;;3.20;99.90;;;;;;4956984;29;20224;-80
2023/12/07 08:05:03;;;;;;;32.10;19.10;;;3.20;99.90;;;;;;4956117;29;20216;-80
2023/12/07 08:07:31;;;;;;;29.73;18.03;;;3.20;99.90;;;;;;4953314;28;20210;-79
2023/12/07 08:09:58;;;;;;;35.43;20.37;;;3.50;99.90;;;;;;4956130;28;20203;-79
2023/12/07 08:12:26;;;;;;;31.20;19.53;;;3.40;99.90;;;;;;4956378;28;20198;-78
2023/12/07 08:55:34;;;;;;;33.70;22.23;;;3.50;99.90;;;;;;5114728;27;20558;-80
2023/12/07 08:58:12;;;;;;;30.67;19.20;;;3.70;99.90;;;;;;5101226;28;20200;-82
2023/12/07 09:00:40;;;;;;;31.50;20.07;;;3.70;99.90;;;;;;5098695;28;20211;-81
2023/12/07 09:03:17;;;;;;;28.53;18.80;;;3.80;99.90;;;;;;5111768;28;20191;-80
2023/12/07 09:05:47;;;;;;;30.20;18.87;;;3.80;99.90;;;;;;5100585;28;20216;-81
2023/12/07 09:08:14;;;;;;;32.07;20.30;;;3.80;99.90;;;;;;5092990;28;20200;-81
2023/12/07 09:10:43;;;;;;;30.20;18.60;;;3.90;99.90;;;;;;5097357;28;20211;-80
2023/12/07 09:13:11;;;;;;;30.83;17.80;;;3.90;99.90;;;;;;5100678;28;20428;-83
2023/12/07 09:33:53;;;;;;;27.93;18.50;;;4.00;99.90;;;;;;5031836;28;20588;-80
2023/12/07 09:36:21;;;;;;;27.73;18.47;;;4.40;99.90;;;;;;4989473;28;20206;-80
2023/12/07 09:38:49;;;;;;;25.13;17.40;;;4.50;99.90;;;;;;4988856;28;20203;-80
2023/12/07 09:41:17;;;;;;;24.17;16.33;;;4.60;99.90;;;;;;5006850;28;20213;-81
2023/12/07 09:43:44;;;;;;;24.90;16.43;;;4.60;99.90;;;;;;4990619;28;20224;-82
2023/12/07 09:46:13;;;;;;;24.10;16.87;;;4.70;99.90;;;;;;5005082;28;20551;-82
2023/12/07 09:48:43;;;;;;;24.20;15.53;;;4.80;99.90;;;;;;4998218;28;20209;-82
2023/12/07 09:51:12;;;;;;;25.73;15.77;;;4.70;99.90;;;;;;4999589;28;20202;-82
2023/12/07 09:53:43;;;;;;;21.10;14.30;;;4.70;99.90;;;;;;5008509;28;20214;-81
2023/12/07 09:56:11;;;;;;;24.17;15.20;;;4.80;99.90;;;;;;4997378;28;20213;-80
2023/12/07 09:58:42;;;;;;;25.37;15.43;;;4.90;99.90;;;;;;5005722;28;20213;-81
2023/12/07 10:01:13;;;;;;;20.43;14.53;;;5.10;99.90;;;;;;4992691;28;20202;-82
2023/12/07 10:03:41;;;;;;;22.27;14.97;;;5.10;99.90;;;;;;5007036;28;20222;-82
2023/12/07 10:06:12;;;;;;;20.63;14.27;;;5.20;99.90;;;;;;5008144;28;20193;-81
2023/12/07 10:08:39;;;;;;;20.63;13.30;;;5.30;98.00;;;;;;4993665;28;20207;-81
2023/12/07 10:54:42;;;;;;;14.37;10.87;;;6.00;1.00;;;;;;5076299;27;20585;-80
2023/12/07 10:57:10;;;;;;;14.27;10.70;;;6.50;99.90;;;;;;5062641;28;20688;-81
2023/12/07 10:59:40;;;;;;;18.60;11.07;;;6.50;99.90;;;;;;5059530;28;20200;-80
2023/12/07 11:02:14;;;;;;;15.43;10.40;;;7.50;99.90;;;;;;5061845;28;20200;-78
2023/12/07 11:04:43;;;;;;;15.70;10.60;;;7.40;99.90;;;;;;5059446;28;20222;-81
2023/12/07 11:07:13;;;;;;;13.47;9.67;;;7.50;99.90;;;;;;5062876;28;20201;-81
2023/12/07 11:09:48;;;;;;;12.17;9.97;;;7.80;99.90;;;;;;5084348;28;20216;-81
2023/12/07 11:12:25;;;;;;;11.73;9.17;;;7.20;99.90;;;;;;5077287;28;20210;-80
2023/12/07 11:14:52;;;;;;;12.53;8.70;;;7.20;99.90;;;;;;5062338;28;20214;-82
2023/12/07 11:17:22;;;;;;;13.17;9.10;;;6.80;90.00;;;;;;5063169;28;20216;-83
2023/12/07 11:19:49;;;;;;;28.37;13.33;;;6.80;80.10;;;;;;5066858;28;20197;-82
2023/12/07 11:22:17;;;;;;;33.53;12.63;;;7.90;99.90;;;;;;5062463;28;20205;-81
2023/12/07 11:25:00;;;;;;;23.37;11.93;;;9.30;1.00;;;;;;5064838;28;20214;-81
2023/12/07 11:27:31;;;;;;;15.03;9.33;;;10.10;86.90;;;;;;5074996;28;20202;-80
2023/12/07 11:30:06;;;;;;;30.43;13.17;;;10.50;99.90;;;;;;5065323;28;20201;-81
2023/12/07 11:32:34;;;;;;;38.83;12.80;;;10.40;99.90;;;;;;5068542;28;20205;-83
2023/12/07 11:35:04;;;;;;;14.50;8.53;;;9.80;99.90;;;;;;5081304;28;20229;-80
2023/12/07 11:38:01;;;;;;;23.13;9.93;;;10.20;99.90;;;;;;5084402;28;20201;-81
2023/12/07 11:40:31;;;;;;;12.33;9.33;;;10.10;99.90;;;;;;5083813;28;20179;-81
2023/12/07 11:42:59;;;;;;;29.37;10.90;;;10.00;99.90;;;;;;5067264;28;20174;-81
2023/12/07 11:45:43;;;;;;;17.80;8.47;;;10.60;99.90;;;;;;5063327;28;20224;-84
2023/12/07 11:48:12;;;;;;;11.83;7.73;;;11.30;99.90;;;;;;5080155;23;20589;-75
2023/12/07 11:51:00;;;;;;;8.23;7.23;;;12.10;95.60;;;;;;5029447;28;20202;-76
2023/12/07 11:53:29;;;;;;;7.50;6.50;;;9.90;97.40;;;;;;5025907;28;20210;-78
2023/12/07 11:55:59;;;;;;;7.97;6.80;;;8.40;99.90;;;;;;5028332;28;20218;-76
2023/12/07 11:58:27;;;;;;;7.93;6.30;;;8.10;99.90;;;;;;5016198;28;20210;-76
2023/12/07 12:00:56;;;;;;;9.93;7.43;;;8.80;31.70;;;;;;5016046;28;20214;-76
2023/12/07 12:03:23;;;;;;;9.50;7.20;;;8.30;99.90;;;;;;5015289;28;20199;-78
2023/12/07 12:05:51;;;;;;;9.27;6.90;;;8.20;99.90;;;;;;5016386;28;20191;-78
2023/12/07 12:08:19;;;;;;;9.03;6.77;;;8.20;99.90;;;;;;5033974;28;20206;-77
2023/12/07 12:10:49;;;;;;;9.53;7.47;;;8.00;99.90;;;;;;5016004;28;20203;-77
2023/12/07 12:13:28;;;;;;;11.43;7.67;;;8.60;1.00;;;;;;5016304;28;20211;-76
2023/12/07 12:15:57;;;;;;;9.57;6.97;;;8.20;1.00;;;;;;5032675;28;20651;-77
2023/12/07 12:18:26;;;;;;;9.93;7.23;;;8.30;1.00;;;;;;5016042;28;20226;-76
2023/12/07 12:20:54;;;;;;;12.90;8.17;;;8.10;1.00;;;;;;5033756;28;20658;-76
2023/12/07 12:23:33;;;;;;;10.50;7.33;;;8.30;99.90;;;;;;5012810;28;20567;-76
2023/12/07 12:26:02;;;;;;;11.67;8.10;;;9.00;99.90;;;;;;5002301;28;20208;-77
2023/12/07 12:28:32;;;;;;;11.97;7.50;;;8.60;99.80;;;;;;5008386;28;20215;-76
2023/12/07 12:31:00;;;;;;;10.10;7.60;;;8.40;99.90;;;;;;5005909;28;20544;-76
2023/12/07 12:33:28;;;;;;;10.50;7.07;;;8.30;99.90;;;;;;5025146;28;20219;-76
2023/12/07 12:36:05;;;;;;;9.27;7.70;;;9.40;99.70;;;;;;5014657;28;20666;-76
2023/12/07 12:38:32;;;;;;;13.57;7.73;;;9.10;98.40;;;;;;5015014;28;20226;-76
2023/12/07 12:41:00;;;;;;;10.27;7.90;;;8.80;98.90;;;;;;5030029;28;20217;-76
2023/12/07 12:43:27;;;;;;;12.90;9.30;;;9.00;99.30;;;;;;5020101;28;20195;-76
2023/12/07 12:45:57;;;;;;;9.53;7.80;;;9.80;98.20;;;;;;5030437;28;20191;-76
2023/12/07 12:48:25;;;;;;;9.00;7.33;;;9.10;97.70;;;;;;5015332;28;20241;-76
2023/12/07 12:50:52;;;;;;;11.63;7.97;;;8.30;99.90;;;;;;5018139;28;20195;-76
2023/12/07 12:53:21;;;;;;;11.37;7.93;;;8.10;99.50;;;;;;5013921;28;20222;-77
2023/12/07 12:55:49;;;;;;;10.90;8.30;;;9.30;99.90;;;;;;5014169;28;20206;-77
2023/12/07 12:58:17;;;;;;;11.67;7.83;;;8.40;99.10;;;;;;5011803;28;20219;-76
2023/12/07 13:00:44;;;;;;;10.97;7.57;;;7.70;99.90;;;;;;5008182;28;20209;-76
2023/12/07 13:03:13;;;;;;;10.67;8.73;;;8.40;99.60;;;;;;5026546;28;20195;-76
2023/12/07 13:05:40;;;;;;;10.47;7.80;;;10.00;96.90;;;;;;5011647;28;20204;-77
2023/12/07 13:08:09;;;;;;;10.60;8.07;;;10.70;94.70;;;;;;5013177;28;20235;-77
2023/12/07 13:10:36;;;;;;;9.20;7.70;;;10.70;95.70;;;;;;5032632;28;20222;-77
2023/12/07 13:13:06;;;;;;;9.87;8.23;;;10.60;94.00;;;;;;5035083;28;20210;-77
2023/12/07 13:15:34;;;;;;;9.57;8.57;;;11.50;94.20;;;;;;5029476;28;20199;-77
2023/12/07 13:18:01;;;;;;;9.27;7.60;;;11.90;92.00;;;;;;5030193;28;20222;-77
2023/12/07 13:20:30;;;;;;;9.40;8.37;;;12.30;90.90;;;;;;5013786;28;20210;-77
2023/12/07 13:22:57;;;;;;;9.63;8.60;;;12.00;90.70;;;;;;5013031;28;20218;-77
2023/12/07 13:25:25;;;;;;;11.07;8.70;;;12.00;90.90;;;;;;5028620;28;20191;-77
2023/12/07 13:27:52;;;;;;;11.00;7.97;;;11.90;91.30;;;;;;5016142;28;20218;-77
2023/12/07 13:30:20;;;;;;;9.33;7.80;;;11.00;91.70;;;;;;5013889;28;20205;-77
2023/12/07 13:32:47;;;;;;;12.20;8.60;;;11.90;91.70;;;;;;5032223;28;20192;-77
2023/12/07 13:35:15;;;;;;;9.65;7.60;;;12.00;90.70;;;;;;5008700;28;20217;-77
2023/12/07 13:37:44;;;;;;;10.50;7.55;;;11.30;91.30;;;;;;5015060;28;20687;-77
2023/12/07 13:40:12;;;;;;;12.48;8.25;;;11.30;91.30;;;;;;5013480;28;20190;-77
2023/12/07 13:42:39;;;;;;;10.00;7.90;;;10.30;92.20;;;;;;5013034;28;20199;-77
2023/12/07 13:45:08;;;;;;;8.07;6.97;;;10.40;92.60;;;;;;5032704;28;20203;-77
2023/12/07 13:47:37;;;;;;;9.20;7.40;;;10.80;92.30;;;;;;5007764;28;20199;-77
2023/12/07 13:50:08;;;;;;;8.20;7.30;;;9.30;93.70;;;;;;5013253;28;20195;-77
2023/12/07 13:52:35;;;;;;;8.40;7.57;;;8.90;96.30;;;;;;5020668;28;20278;-77
2023/12/07 13:55:05;;;;;;;9.33;7.53;;;9.30;96.40;;;;;;5012580;28;20222;-77
2023/12/07 13:57:32;;;;;;;7.90;7.03;;;9.80;94.90;;;;;;5032664;28;20210;-76
2023/12/07 14:00:00;;;;;;;10.67;8.17;;;9.40;95.40;;;;;;5013751;28;20198;-77
2023/12/07 14:02:28;;;;;;;9.43;6.97;;;10.00;94.10;;;;;;5013395;28;20191;-77
2023/12/07 14:04:57;;;;;;;7.67;6.77;;;11.00;92.90;;;;;;5016513;28;20207;-78
2023/12/07 14:07:24;;;;;;;10.50;6.97;;;11.10;91.20;;;;;;5012823;28;20651;-77
2023/12/07 14:09:53;;;;;;;9.80;7.47;;;12.00;89.20;;;;;;5013379;28;20195;-77
2023/12/07 14:12:21;;;;;;;9.33;7.70;;;11.80;89.00;;;;;;5031344;28;20191;-78
2023/12/07 14:14:49;;;;;;;10.37;7.50;;;11.60;89.80;;;;;;5014796;28;20214;-77
2023/12/07 14:17:17;;;;;;;13.07;7.10;;;10.50;90.80;;;;;;5029543;28;20201;-77
2023/12/07 14:19:47;;;;;;;10.57;7.80;;;10.30;91.40;;;;;;5014347;28;20199;-77
2023/12/07 14:22:16;;;;;;;9.00;7.63;;;9.60;92.20;;;;;;5014126;28;20203;-77
2023/12/07 14:24:43;;;;;;;10.37;7.90;;;9.20;93.80;;;;;;5012579;28;20195;-77
2023/12/07 14:27:53;;;;;;;9.53;7.57;;;8.60;94.50;;;;;;5015127;28;20207;-77
2023/12/07 14:30:48;;;;;;;9.67;7.80;;;8.50;95.90;;;;;;5011447;28;20210;-77
2023/12/07 14:33:28;;;;;;;9.23;7.20;;;8.40;95.90;;;;;;5028907;28;20199;-77
2023/12/07 14:35:58;;;;;;;9.67;7.63;;;7.60;97.50;;;;;;5011259;28;20674;-77